PST,Max TemperatureF,Mean TemperatureF,Min TemperatureF,Max Dew PointF,MeanDew PointF,Min DewpointF,Max Humidity, Mean Humidity, Min Humidity, Max Sea Level PressureIn, Mean Sea Level PressureIn, Min Sea Level PressureIn, Max VisibilityMiles, Mean VisibilityMiles, Min VisibilityMiles, Max Wind SpeedMPH, Mean Wind SpeedMPH, Max Gust SpeedMPH,PrecipitationIn, CloudCover, Events, WindDirDegrees
2013-12-1,64,52,40,49,44,40,96,74,51,30.35,30.28,30.23,10,9,7,9,2,16,0.00,1,Fog,292
2013-12-2,61,51,41,54,48,38,93,80,67,30.23,30.12,29.99,10,8,0,16,5,20,0.00,4,Fog,274
2013-12-3,56,50,43,54,37,29,93,66,38,29.95,29.92,29.87,10,10,10,28,12,33,0.00,4,,297
2013-12-4,51,42,33,30,23,13,65,47,29,30.09,30.04,29.96,10,10,10,10,4,14,0.00,0,,311
2013-12-5,50,39,28,26,19,12,59,43,27,30.19,30.14,30.09,10,10,10,10,3,13,0.00,0,,193
2013-12-6,52,44,36,47,33,24,83,63,42,30.21,30.11,29.94,10,10,5,30,11,36,0.23,5,Rain,167
2013-12-7,50,41,32,45,29,24,70,53,36,30.26,30.11,29.94,10,10,10,24,11,32,0.05,2,Rain,324
2013-12-8,48,40,31,28,21,15,82,56,29,30.33,30.29,30.25,10,10,10,17,7,24,0.00,2,,57
2013-12-9,54,42,30,24,17,10,64,43,21,30.43,30.38,30.33,10,10,10,22,8,29,0.00,0,,70
2013-12-10,54,43,31,36,27,23,70,51,32,30.41,30.30,30.22,10,10,10,16,4,16,0.00,1,,94
2013-12-11,53,42,31,37,29,25,75,57,39,30.26,30.22,30.19,10,10,8,10,3,14,0.00,0,,148
2013-12-12,54,43,31,40,33,26,79,65,50,30.28,30.23,30.19,10,8,6,8,3,12,0.00,1,,158
2013-12-13,53,44,34,43,39,32,89,78,66,30.35,30.29,30.25,10,7,2,9,2,13,0.00,3,,234
2013-12-14,57,44,31,43,37,31,85,68,51,30.41,30.35,30.32,10,9,7,10,3,14,0.00,1,Fog,190
2013-12-15,58,46,33,42,37,31,89,68,47,30.37,30.30,30.24,10,8,6,12,2,18,0.00,2,,206
2013-12-16,66,51,36,42,38,33,86,60,34,30.24,30.18,30.13,10,10,8,12,3,21,0.00,5,,201
2013-12-17,60,50,39,43,39,36,86,63,40,30.19,30.11,30.04,9,6,3,8,2,9,0.00,6,,225
2013-12-18,56,46,36,47,42,34,92,78,64,30.03,29.91,29.78,10,8,5,15,6,17,0.00,5,,262
2013-12-19,58,49,39,44,33,12,86,54,22,29.94,29.82,29.74,10,10,10,18,6,22,0.00,1,,306
2013-12-20,57,45,33,30,23,12,57,39,20,30.03,29.98,29.94,10,10,10,13,2,14,0.00,1,,154
2013-12-21,62,50,37,48,40,28,93,74,55,30.10,30.03,29.99,10,9,6,12,3,16,0.00,0,,248
2013-12-22,62,49,36,45,39,36,93,68,42,30.29,30.20,30.10,10,9,2,9,3,18,0.00,0,Fog,273
2013-12-23,60,49,37,42,38,35,85,66,46,30.40,30.35,30.30,10,9,6,12,2,15,0.00,1,,285
2013-12-24,66,53,39,44,39,34,89,63,37,30.35,30.28,30.21,10,8,6,9,3,24,0.00,1,,355
2013-12-25,62,50,37,42,38,35,86,64,42,30.30,30.25,30.21,10,10,8,9,3,9,0.00,0,,220
2013-12-26,62,49,35,43,38,34,92,66,39,30.27,30.22,30.18,10,9,7,7,2,7,0.00,0,,289
2013-12-27,58,47,35,43,39,32,92,76,59,30.24,30.19,30.14,10,9,6,9,2,20,0.00,4,,308
2013-12-28,62,47,31,41,34,30,92,62,32,30.16,30.10,30.04,10,10,10,8,2,14,0.00,0,Fog,321
2013-12-29,72,53,34,40,26,15,76,45,13,30.19,30.13,30.10,10,10,10,16,5,21,0.00,1,,46
2013-12-30,61,48,34,45,38,30,93,67,40,30.27,30.23,30.18,10,10,7,9,3,13,0.00,3,Fog,327
2013-12-31,59,48,36,44,38,34,92,68,44,30.28,30.22,30.17,10,7,4,10,3,21,0.00,3,,293